Time;durP1;ratioP1;P1;durP2;ratioP2;P2;SDS_P1;SDS_P2;PMS_P1;PMS_P2;Temp;Humidity;BMP_temperature;BMP_pressure;BME280_temperature;BME280_humidity;BME280_pressure;Samples;Min_cycle;Max_cycle;Signal;HPM_P1;HPM_P2
2023/09/14 00:00:10;;;;;;;5.25;2.83;;;;;;;15.31;100.00;101655.81;4991515;28;20049;-62
2023/09/14 00:02:35;;;;;;;4.63;2.78;;;;;;;15.29;100.00;101654.94;4994654;28;20031;-62
2023/09/14 00:05:02;;;;;;;5.80;3.20;;;;;;;15.28;100.00;101655.84;5006270;28;20045;-62
2023/09/14 00:07:28;;;;;;;6.00;3.40;;;;;;;15.27;100.00;101657.59;5010638;28;20530;-63
2023/09/14 00:09:53;;;;;;;8.32;2.70;;;;;;;15.26;100.00;101655.00;5009787;28;20050;-62
2023/09/14 00:12:19;;;;;;;4.65;2.70;;;;;;;15.20;100.00;101649.00;5007412;28;20060;-62
2023/09/14 00:14:44;;;;;;;4.57;2.72;;;;;;;15.15;100.00;101648.19;5002002;28;20038;-62
2023/09/14 00:17:10;;;;;;;6.18;3.28;;;;;;;15.09;100.00;101650.88;4992330;28;20403;-62
2023/09/14 00:19:35;;;;;;;5.57;3.08;;;;;;;15.04;100.00;101642.28;5005275;28;20592;-62
2023/09/14 00:22:00;;;;;;;7.57;3.55;;;;;;;15.03;100.00;101643.16;4991665;28;20038;-62
2023/09/14 00:24:26;;;;;;;4.13;2.78;;;;;;;15.00;100.00;101642.31;5006367;28;20063;-62
2023/09/14 00:26:51;;;;;;;6.75;3.13;;;;;;;14.90;100.00;101643.34;5005651;28;20497;-62
2023/09/14 00:29:16;;;;;;;4.00;2.92;;;;;;;14.81;100.00;101646.03;4990708;28;20044;-62
2023/09/14 00:31:42;;;;;;;4.65;2.80;;;;;;;14.75;100.00;101649.53;4992465;28;20050;-62
2023/09/14 00:34:07;;;;;;;5.35;3.00;;;;;;;14.71;100.00;101640.06;5007948;28;20036;-61
2023/09/14 00:36:32;;;;;;;6.63;2.63;;;;;;;14.67;100.00;101646.19;5008261;28;20645;-61
2023/09/14 00:38:58;;;;;;;6.00;2.70;;;;;;;14.63;100.00;101647.13;5007804;28;20021;-62
2023/09/14 00:41:23;;;;;;;5.18;2.78;;;;;;;14.60;100.00;101641.94;5003444;28;20031;-62
2023/09/14 00:43:48;;;;;;;7.82;2.78;;;;;;;14.56;100.00;101648.91;5005094;28;20072;-61
2023/09/14 00:46:14;;;;;;;4.45;2.65;;;;;;;14.54;100.00;101645.44;5009594;28;20030;-62
2023/09/14 00:48:40;;;;;;;12.35;3.38;;;;;;;14.53;100.00;101653.28;5009696;28;20118;-66
2023/09/14 00:51:06;;;;;;;6.18;3.22;;;;;;;14.48;100.00;101655.91;5007607;28;20034;-66
2023/09/14 00:53:32;;;;;;;7.63;3.83;;;;;;;14.47;100.00;101658.53;5018954;28;20030;-66
2023/09/14 00:55:58;;;;;;;9.48;3.90;;;;;;;14.42;100.00;101652.53;5009751;28;20042;-67
2023/09/14 00:58:23;;;;;;;7.60;3.47;;;;;;;14.38;100.00;101658.63;5006332;28;20377;-58
2023/09/14 01:00:49;;;;;;;7.40;3.90;;;;;;;14.32;100.00;101656.06;5006874;28;20030;-59
2023/09/14 01:03:15;;;;;;;5.88;3.42;;;;;;;14.29;100.00;101659.56;5001982;28;20427;-62
2023/09/14 01:05:41;;;;;;;4.90;3.17;;;;;;;14.29;100.00;101656.09;5005197;28;20581;-66
2023/09/14 01:08:06;;;;;;;4.88;2.90;;;;;;;14.28;100.00;101656.94;5007284;28;20038;-66
2023/09/14 01:10:32;;;;;;;4.55;3.50;;;;;;;14.27;100.00;101653.50;4991996;28;20496;-61
2023/09/14 01:12:58;;;;;;;5.88;2.90;;;;;;;14.28;100.00;101663.03;5008029;28;20095;-66
2023/09/14 01:15:33;;;;;;;4.18;3.03;;;;;;;14.30;100.00;101660.41;5002693;28;20117;-60
2023/09/14 01:18:26;;;;;;;4.93;3.00;;;;;;;14.33;100.00;101663.88;5001779;28;20041;-62
2023/09/14 01:21:32;;;;;;;5.35;3.17;;;;;;;14.39;100.00;101663.84;5006725;28;20056;-62
2023/09/14 01:24:13;;;;;;;8.43;3.78;;;;;;;14.46;100.00;101669.81;4990900;28;20133;-62
2023/09/14 01:26:39;;;;;;;4.78;3.30;;;;;;;14.40;100.00;101665.53;5006559;28;20030;-61
2023/09/14 01:29:04;;;;;;;5.30;3.20;;;;;;;14.47;100.00;101663.75;5009323;28;20120;-61
2023/09/14 01:31:31;;;;;;;4.07;2.90;;;;;;;14.52;100.00;101661.94;5010574;28;20117;-62
2023/09/14 01:33:57;;;;;;;3.92;3.20;;;;;;;14.57;100.00;101662.78;5007872;28;20050;-62
2023/09/14 01:36:34;;;;;;;7.13;3.55;;;;;;;14.64;100.00;101664.44;5010821;28;20033;-62
2023/09/14 01:39:01;;;;;;;6.70;3.75;;;;;;;14.71;100.00;101667.84;5005575;28;20030;-62
2023/09/14 01:41:28;;;;;;;7.15;4.05;;;;;;;14.72;100.00;101656.56;5010082;28;20030;-62
2023/09/14 01:43:54;;;;;;;6.85;4.00;;;;;;;14.77;100.00;101660.81;5008930;28;20037;-62
2023/09/14 01:46:20;;;;;;;6.25;4.25;;;;;;;14.78;100.00;101669.50;5008762;28;20030;-61
2023/09/14 01:48:46;;;;;;;10.98;4.05;;;;;;;14.78;100.00;101670.34;5008493;28;20104;-62
2023/09/14 01:51:11;;;;;;;7.03;4.88;;;;;;;14.81;100.00;101670.31;5009319;28;20039;-62
2023/09/14 01:53:37;;;;;;;6.35;4.47;;;;;;;14.84;100.00;101667.66;5009575;28;20114;-62
2023/09/14 01:56:03;;;;;;;7.28;4.82;;;;;;;14.87;100.00;101666.78;5011409;28;20443;-62
2023/09/14 01:58:29;;;;;;;6.30;3.97;;;;;;;14.91;100.00;101668.47;5008889;28;20100;-61
2023/09/14 02:00:56;;;;;;;5.38;3.95;;;;;;;14.89;100.00;101663.28;5006575;28;20451;-62
2023/09/14 02:03:21;;;;;;;6.60;4.40;;;;;;;14.85;100.00;101666.78;5008591;28;20602;-62
2023/09/14 02:05:56;;;;;;;8.48;4.90;;;;;;;14.84;100.00;101659.84;5012669;28;20034;-62
2023/09/14 02:08:22;;;;;;;6.47;4.82;;;;;;;14.82;100.00;101663.34;5008593;28;20117;-62
2023/09/14 02:10:47;;;;;;;8.95;4.78;;;;;;;14.82;100.00;101658.16;5010006;28;20727;-62
2023/09/14 02:13:12;;;;;;;9.25;5.38;;;;;;;14.83;100.00;101667.69;5008213;28;20030;-62
2023/09/14 02:15:38;;;;;;;10.70;5.72;;;;;;;14.81;100.00;101659.06;5010512;28;20122;-62
2023/09/14 02:18:03;;;;;;;10.27;5.43;;;;;;;14.77;100.00;101668.63;5011543;28;20041;-62
2023/09/14 02:20:28;;;;;;;8.07;4.60;;;;;;;14.71;100.00;101670.44;5008839;28;20073;-62
2023/09/14 02:22:54;;;;;;;10.73;4.53;;;;;;;14.65;100.00;101669.63;5010018;28;20061;-62
2023/09/14 02:25:19;;;;;;;7.45;4.68;;;;;;;14.61;100.00;101680.06;5008078;28;20037;-61
2023/09/14 02:27:44;;;;;;;9.32;4.70;;;;;;;14.54;100.00;101668.84;5008494;28;20028;-61
2023/09/14 02:30:10;;;;;;;8.52;4.57;;;;;;;14.50;100.00;101681.94;5009992;28;20071;-62
2023/09/14 02:32:35;;;;;;;6.38;4.10;;;;;;;14.45;100.00;101675.91;5008138;28;20033;-62
2023/09/14 02:35:01;;;;;;;9.85;5.03;;;;;;;14.40;100.00;101680.28;5007810;28;20065;-62
2023/09/14 02:37:26;;;;;;;13.82;4.90;;;;;;;14.38;100.00;101682.03;5009145;28;20034;-60
2023/09/14 02:39:52;;;;;;;9.90;5.03;;;;;;;14.31;100.00;101681.19;5009492;28;20033;-60
2023/09/14 02:42:17;;;;;;;8.35;5.35;;;;;;;14.26;100.00;101680.38;5008246;28;20026;-60
2023/09/14 02:44:43;;;;;;;9.77;5.78;;;;;;;14.22;100.00;101680.44;5009883;28;20697;-59
2023/09/14 02:47:09;;;;;;;13.45;5.70;;;;;;;14.18;100.00;101690.00;4994593;28;20066;-59
2023/09/14 02:49:34;;;;;;;6.70;4.95;;;;;;;14.16;100.00;101686.53;4970659;28;20583;-59
2023/09/14 02:52:00;;;;;;;8.70;5.30;;;;;;;14.16;100.00;101686.53;4989603;28;20060;-59
2023/09/14 02:54:25;;;;;;;8.68;5.63;;;;;;;14.20;100.00;101695.16;5001360;28;20535;-59
2023/09/14 02:56:50;;;;;;;7.75;5.43;;;;;;;14.24;100.00;101689.06;4984563;28;20101;-59
2023/09/14 02:59:16;;;;;;;8.20;5.00;;;;;;;14.28;100.00;101695.97;4984511;28;20569;-59
2023/09/14 03:01:44;;;;;;;7.43;4.97;;;;;;;14.29;100.00;101693.38;4987935;28;20109;-59
2023/09/14 03:04:09;;;;;;;9.10;5.28;;;;;;;14.28;100.00;101689.03;4985293;28;20038;-59
2023/09/14 03:06:35;;;;;;;7.70;4.57;;;;;;;14.28;100.00;101693.34;4983811;28;20045;-59
2023/09/14 03:09:00;;;;;;;4.95;4.15;;;;;;;14.27;100.00;101702.06;4986096;28;20500;-59
2023/09/14 03:11:26;;;;;;;11.55;4.88;;;;;;;14.25;100.00;101701.19;4984219;28;20085;-66
2023/09/14 03:13:51;;;;;;;6.53;3.90;;;;;;;14.22;100.00;101702.06;4998569;28;20034;-66
2023/09/14 03:16:17;;;;;;;8.65;4.22;;;;;;;14.17;100.00;101693.47;4997040;28;20045;-66
2023/09/14 03:18:42;;;;;;;8.57;4.53;;;;;;;14.15;100.00;101696.97;4986891;28;20062;-66
2023/09/14 03:21:21;;;;;;;11.68;4.18;;;;;;;14.11;100.00;101696.09;4988533;28;20057;-66
2023/09/14 03:23:47;;;;;;;7.50;5.07;;;;;;;14.06;100.00;101695.28;4987972;28;20125;-66
2023/09/14 03:26:13;;;;;;;9.27;5.70;;;;;;;14.07;100.00;101694.41;4987748;28;20117;-66
2023/09/14 03:28:39;;;;;;;10.35;5.38;;;;;;;14.05;100.00;101696.16;4987929;28;20493;-66
2023/09/14 03:31:04;;;;;;;8.57;5.80;;;;;;;14.04;100.00;101694.41;4988320;28;20118;-66
2023/09/14 03:33:29;;;;;;;14.25;7.70;;;;;;;14.02;100.00;101702.25;4954694;28;20053;-66
2023/09/14 03:35:55;;;;;;;16.70;8.35;;;;;;;14.00;100.00;101708.34;4992489;28;20035;-66
2023/09/14 03:38:20;;;;;;;11.95;7.78;;;;;;;13.95;100.00;101702.31;4987982;28;20049;-62
2023/09/14 03:40:46;;;;;;;12.85;7.82;;;;;;;13.91;100.00;101706.66;4997615;28;20038;-62
2023/09/14 03:43:11;;;;;;;8.65;5.85;;;;;;;13.93;100.00;101709.25;5001622;28;20061;-62
2023/09/14 03:45:37;;;;;;;12.43;6.18;;;;;;;14.00;100.00;101705.75;4981137;28;20038;-61
2023/09/14 03:48:04;;;;;;;11.55;6.05;;;;;;;14.08;100.00;101703.94;4991291;28;20054;-62
2023/09/14 03:50:29;;;;;;;9.20;5.68;;;;;;;14.16;100.00;101702.13;4987420;28;20117;-62
2023/09/14 03:52:55;;;;;;;8.65;5.80;;;;;;;14.25;100.00;101703.78;5002418;28;20109;-62
2023/09/14 03:55:21;;;;;;;6.18;4.78;;;;;;;14.29;100.00;101690.75;5007006;28;20077;-61
2023/09/14 03:57:47;;;;;;;10.65;7.03;;;;;;;14.36;100.00;101704.59;5004250;28;20448;-61
2023/09/14 04:00:15;;;;;;;10.20;6.35;;;;;;;14.39;100.00;101696.78;4991924;28;20030;-60
2023/09/14 04:02:42;;;;;;;11.65;6.63;;;;;;;14.42;100.00;101694.16;4988958;28;20034;-60
2023/09/14 04:05:14;;;;;;;10.82;6.13;;;;;;;14.45;100.00;101696.72;5002981;28;20118;-61
2023/09/14 04:07:40;;;;;;;10.32;5.30;;;;;;;14.47;100.00;101694.97;4999135;28;20072;-62
2023/09/14 04:10:12;;;;;;;13.85;7.20;;;;;;;14.48;100.00;101691.50;4995138;28;20470;-60
2023/09/14 04:12:41;;;;;;;12.57;7.60;;;;;;;14.47;100.00;101693.22;5050715;23;20057;-60
2023/09/14 04:15:07;;;;;;;11.85;7.43;;;;;;;14.51;100.00;101694.91;5044659;28;20025;-59
2023/09/14 04:17:34;;;;;;;11.13;7.88;;;;;;;14.53;100.00;101695.78;5041829;28;20033;-59
2023/09/14 04:20:00;;;;;;;10.65;7.20;;;;;;;14.55;100.00;101695.75;5036704;28;20037;-59
2023/09/14 04:22:25;;;;;;;12.40;7.85;;;;;;;14.55;100.00;101687.94;5034368;28;20036;-58
2023/09/14 04:24:51;;;;;;;12.35;8.73;;;;;;;14.53;100.00;101697.50;5040394;28;20037;-59
2023/09/14 04:27:16;;;;;;;12.30;7.80;;;;;;;14.49;100.00;101693.19;5025514;28;20063;-59
2023/09/14 04:29:43;;;;;;;11.52;8.00;;;;;;;14.49;100.00;101698.41;5039268;28;20053;-59
2023/09/14 04:32:08;;;;;;;15.40;8.20;;;;;;;14.50;100.00;101693.19;5036742;28;20121;-59
2023/09/14 04:34:34;;;;;;;17.52;10.77;;;;;;;14.51;100.00;101697.50;5035537;28;20125;-59
2023/09/14 04:36:59;;;;;;;17.83;8.75;;;;;;;14.51;100.00;101691.47;5034645;28;20162;-59
2023/09/14 04:39:24;;;;;;;15.13;8.85;;;;;;;14.53;100.00;101700.09;5036205;28;20476;-59
2023/09/14 04:41:50;;;;;;;12.02;8.02;;;;;;;14.55;100.00;101698.34;5039720;28;20396;-59
2023/09/14 04:44:15;;;;;;;10.60;7.88;;;;;;;14.56;100.00;101698.34;5040573;28;20030;-59
2023/09/14 04:46:41;;;;;;;11.52;7.53;;;;;;;14.56;100.00;101692.28;5036964;28;20459;-58
2023/09/14 04:49:06;;;;;;;12.73;7.70;;;;;;;14.55;100.00;101699.22;5037870;28;20041;-59
2023/09/14 04:51:32;;;;;;;12.43;7.63;;;;;;;14.57;100.00;101699.22;5037493;28;20040;-60
2023/09/14 04:53:58;;;;;;;11.05;6.78;;;;;;;14.59;100.00;101706.13;5039433;28;20090;-59
2023/09/14 04:56:23;;;;;;;8.90;6.60;;;;;;;14.61;100.00;101698.28;5039709;28;20026;-59
2023/09/14 04:58:48;;;;;;;12.25;7.72;;;;;;;14.62;100.00;101703.50;5034782;28;20030;-59
2023/09/14 05:01:14;;;;;;;14.57;7.18;;;;;;;14.65;100.00;101702.59;5039751;28;20033;-59
2023/09/14 05:03:40;;;;;;;9.18;6.60;;;;;;;14.66;100.00;101699.13;5040245;28;20391;-59
2023/09/14 05:06:06;;;;;;;12.85;8.35;;;;;;;14.66;100.00;101707.75;5038804;28;20026;-59
2023/09/14 05:08:31;;;;;;;9.45;7.18;;;;;;;14.68;100.00;101710.38;5029098;28;20036;-59
2023/09/14 05:10:57;;;;;;;10.02;7.10;;;;;;;14.71;100.00;101709.47;5043748;28;20851;-59
2023/09/14 05:13:22;;;;;;;13.70;7.30;;;;;;;14.72;100.00;101708.59;5039419;28;20066;-59
2023/09/14 05:15:48;;;;;;;11.85;7.50;;;;;;;14.77;100.00;101706.81;5031896;28;20033;-59
2023/09/14 05:18:14;;;;;;;11.88;9.07;;;;;;;14.78;100.00;101714.56;5034690;28;20025;-59
2023/09/14 05:20:43;;;;;;;15.57;9.68;;;;;;;14.82;100.00;101718.03;5039200;28;20029;-59
2023/09/14 05:23:09;;;;;;;16.77;10.38;;;;;;;14.85;100.00;101708.44;5017078;28;20583;-59
2023/09/14 05:25:34;;;;;;;17.17;10.40;;;;;;;14.85;100.00;101708.44;5035443;28;20114;-59
2023/09/14 05:28:00;;;;;;;19.52;11.35;;;;;;;14.87;100.00;101711.03;5039645;28;20044;-58
2023/09/14 05:30:25;;;;;;;16.02;10.30;;;;;;;14.89;100.00;101720.56;5033978;28;20022;-66
2023/09/14 05:32:51;;;;;;;20.33;13.73;;;;;;;14.93;100.00;101719.63;5036902;28;20675;-66
2023/09/14 05:35:16;;;;;;;20.17;13.20;;;;;;;14.95;100.00;101717.03;5036369;28;20127;-66
2023/09/14 05:37:42;;;;;;;23.08;13.13;;;;;;;14.96;100.00;101718.75;5041529;28;20500;-62
2023/09/14 05:40:12;;;;;;;27.60;15.77;;;;;;;14.95;100.00;101720.50;5038099;28;20036;-61
2023/09/14 05:42:38;;;;;;;25.25;16.30;;;;;;;14.93;100.00;101716.19;5037330;28;20021;-61
2023/09/14 05:45:11;;;;;;;28.67;15.65;;;;;;;14.90;100.00;101716.22;5032826;28;20403;-61
2023/09/14 05:47:37;;;;;;;22.95;14.25;;;;;;;14.96;100.00;101724.81;5032986;28;20022;-62
2023/09/14 05:50:04;;;;;;;24.30;14.43;;;;;;;14.99;100.00;101731.75;5020375;28;20123;-61
2023/09/14 05:52:30;;;;;;;28.23;16.02;;;;;;;14.95;100.00;101737.84;5038810;28;20106;-61
2023/09/14 05:54:56;;;;;;;22.73;14.13;;;;;;;15.02;100.00;101739.47;5018007;28;20032;-61
2023/09/14 05:57:21;;;;;;;23.48;13.80;;;;;;;15.01;100.00;101735.19;5036976;28;20365;-62
2023/09/14 05:59:47;;;;;;;26.25;15.65;;;;;;;15.07;100.00;101730.78;5037499;28;20060;-62
2023/09/14 06:02:13;;;;;;;26.67;15.40;;;;;;;15.06;100.00;101735.97;5018188;28;20146;-62
2023/09/14 06:04:39;;;;;;;25.45;15.75;;;;;;;15.07;100.00;101732.50;5034527;28;20492;-61
2023/09/14 06:07:05;;;;;;;25.15;15.30;;;;;;;15.09;100.00;101736.81;5036413;28;20032;-61
2023/09/14 06:09:30;;;;;;;24.05;14.65;;;;;;;15.11;100.00;101737.66;5039889;28;20091;-62
2023/09/14 06:11:56;;;;;;;24.13;15.15;;;;;;;15.17;100.00;101739.31;5034611;28;20091;-62
2023/09/14 06:14:24;;;;;;;27.92;14.52;;;;;;;15.18;100.00;101747.13;5036643;28;20041;-62
2023/09/14 06:16:49;;;;;;;27.15;16.25;;;;;;;15.24;100.00;101743.59;5035181;28;20029;-62
2023/09/14 06:19:14;;;;;;;29.67;16.25;;;;;;;15.28;100.00;101747.03;5024797;28;20033;-61
2023/09/14 06:21:40;;;;;;;28.40;17.83;;;;;;;15.27;100.00;101747.88;5036914;28;20037;-59
2023/09/14 06:24:06;;;;;;;34.55;18.42;;;;;;;15.32;100.00;101746.09;5037975;28;20025;-59
2023/09/14 06:26:31;;;;;;;31.25;17.73;;;;;;;15.28;100.00;101749.63;5037589;28;20053;-59
2023/09/14 06:28:57;;;;;;;29.60;17.45;;;;;;;15.35;100.00;101765.16;5032610;28;20499;-59
2023/09/14 06:31:23;;;;;;;37.03;19.20;;;;;;;15.42;100.00;101756.38;5035506;28;20057;-59
2023/09/14 06:33:49;;;;;;;30.08;17.17;;;;;;;15.45;100.00;101761.56;5035555;28;20025;-59
2023/09/14 06:36:18;;;;;;;34.55;20.13;;;;;;;15.47;100.00;101761.53;5038035;28;20152;-59
2023/09/14 06:38:43;;;;;;;30.60;18.73;;;;;;;15.50;100.00;101762.34;5038403;28;20113;-59
2023/09/14 06:41:09;;;;;;;32.60;18.15;;;;;;;15.55;100.00;101760.53;5039355;28;20129;-59
2023/09/14 06:43:34;;;;;;;36.25;20.13;;;;;;;15.53;100.00;101761.44;5037745;28;20025;-59
2023/09/14 06:45:59;;;;;;;36.10;19.27;;;;;;;15.56;100.00;101762.28;5035531;28;20049;-59
2023/09/14 06:48:25;;;;;;;37.85;19.27;;;;;;;15.59;100.00;101764.84;5016275;28;20030;-59
2023/09/14 06:50:50;;;;;;;35.58;18.02;;;;;;;15.68;100.00;101759.53;5038003;28;20045;-59
2023/09/14 06:53:16;;;;;;;30.67;17.48;;;;;;;15.71;100.00;101756.91;5035554;28;20038;-59
2023/09/14 06:55:42;;;;;;;36.20;20.08;;;;;;;15.73;100.00;101756.91;5036852;28;20046;-66
2023/09/14 06:58:08;;;;;;;38.45;20.23;;;;;;;15.79;100.00;101761.16;5034405;28;20561;-66
2023/09/14 07:00:35;;;;;;;30.40;19.38;;;;;;;15.67;100.00;101763.03;5035312;28;20034;-65
2023/09/14 07:03:02;;;;;;;38.33;20.75;;;;;;;15.71;100.00;101774.28;5033577;28;20029;-66
2023/09/14 07:05:27;;;;;;;36.45;18.73;;;;;;;15.76;100.00;101768.13;5034401;28;20057;-61
2023/09/14 07:07:53;;;;;;;32.25;18.95;;;;;;;15.79;100.00;101771.59;5035266;28;20048;-61
2023/09/14 07:10:18;;;;;;;32.83;19.50;;;;;;;15.73;100.00;101767.31;5037245;28;20033;-59
2023/09/14 07:12:44;;;;;;;34.10;19.40;;;;;;;15.63;99.96;101774.41;5034613;28;20032;-59
2023/09/14 07:15:10;;;;;;;34.15;18.35;;;;;;;15.67;100.00;101780.44;5035058;28;20083;-59
2023/09/14 07:17:35;;;;;;;32.42;18.33;;;;;;;15.68;100.00;101780.41;5033667;28;20120;-59
2023/09/14 07:20:02;;;;;;;35.22;19.17;;;;;;;15.74;100.00;101782.06;5015809;28;20041;-59
2023/09/14 07:22:27;;;;;;;36.65;19.73;;;;;;;15.87;100.00;101781.03;5038102;28;20777;-59
2023/09/14 07:24:53;;;;;;;40.47;21.63;;;;;;;15.93;100.00;101786.16;5021981;28;20044;-59
2023/09/14 07:27:20;;;;;;;41.40;21.08;;;;;;;15.98;99.22;101783.47;5039552;28;20532;-59
2023/09/14 07:29:45;;;;;;;35.13;20.02;;;;;;;16.05;99.15;101782.50;5038731;28;20036;-61
2023/09/14 07:32:11;;;;;;;43.17;21.77;;;;;;;15.94;97.89;101781.81;5039340;28;20038;-60
2023/09/14 07:34:36;;;;;;;42.10;21.75;;;;;;;15.91;99.14;101787.91;5022187;28;20041;-60
2023/09/14 07:37:01;;;;;;;38.28;20.58;;;;;;;15.95;99.73;101786.97;5019108;28;20086;-60
2023/09/14 07:39:27;;;;;;;39.92;21.42;;;;;;;16.14;100.00;101785.84;5042839;28;20531;-60
2023/09/14 07:41:55;;;;;;;38.03;20.23;;;;;;;16.26;98.36;101784.78;5037673;28;20037;-66
2023/09/14 07:44:21;;;;;;;35.15;19.60;;;;;;;16.32;97.24;101787.31;5030544;28;20026;-66
2023/09/14 07:46:46;;;;;;;33.53;18.40;;;;;;;16.40;95.89;101787.19;5037543;28;20417;-66
2023/09/14 07:49:12;;;;;;;34.95;19.77;;;;;;;16.21;96.41;101797.88;5039952;28;20519;-66
2023/09/14 07:51:37;;;;;;;36.03;19.88;;;;;;;16.40;97.20;101792.38;5039817;28;20025;-65
2023/09/14 07:54:02;;;;;;;40.08;20.38;;;;;;;16.45;96.14;101791.44;5041683;28;20116;-66
2023/09/14 07:56:28;;;;;;;38.30;20.33;;;;;;;16.55;94.02;101790.41;5042182;28;20483;-66
2023/09/14 07:58:53;;;;;;;36.88;20.52;;;;;;;16.75;95.34;101790.91;5041220;28;20198;-66
2023/09/14 08:01:19;;;;;;;31.70;18.83;;;;;;;16.54;93.04;101790.41;5035897;28;20037;-66
2023/09/14 08:03:45;;;;;;;36.20;20.10;;;;;;;16.49;95.11;101803.56;5037960;28;20148;-66
2023/09/14 08:06:10;;;;;;;34.88;19.75;;;;;;;16.73;94.28;101797.94;5039505;28;20587;-66
2023/09/14 08:08:35;;;;;;;31.50;18.80;;;;;;;16.90;92.87;101786.34;5035310;28;20025;-66
2023/09/14 08:11:01;;;;;;;31.73;18.10;;;;;;;17.03;92.71;101790.47;5039271;28;20041;-66
2023/09/14 08:13:26;;;;;;;28.55;17.02;;;;;;;17.18;91.33;101784.94;5040225;28;20033;-66
2023/09/14 08:15:52;;;;;;;30.38;16.38;;;;;;;17.28;90.73;101787.34;5037970;28;20060;-66
2023/09/14 08:18:19;;;;;;;27.98;16.33;;;;;;;17.30;90.50;101789.94;5049734;28;20022;-66
2023/09/14 08:20:44;;;;;;;29.42;16.40;;;;;;;17.39;90.66;101792.38;5036233;28;20503;-66
2023/09/14 08:23:19;;;;;;;30.23;16.65;;;;;;;17.50;nan;101798.25;5035531;28;20060;-59
2023/09/14 08:25:45;;;;;;;;;;;;;;;17.59;88.16;101791.97;5035378;28;20034;-59
2023/09/14 08:28:13;;;;;;;27.10;15.60;;;;;;;17.45;88.31;101791.38;5037250;28;19966;-59
2023/09/14 08:30:40;;;;;;;29.13;16.05;;;;;;;17.56;89.24;101805.09;5041616;28;20020;-60
2023/09/14 08:33:07;;;;;;;27.73;15.55;;;;;;;17.20;89.43;101810.16;5037530;28;20028;-59
2023/09/14 08:35:34;;;;;;;23.42;14.25;;;;;;;17.51;89.40;101802.59;5035615;28;20458;-59
2023/09/14 08:38:02;;;;;;;26.15;15.40;;;;;;;17.53;89.08;101808.63;5020295;28;20036;-59
2023/09/14 08:40:29;;;;;;;26.17;16.70;;;;;;;17.51;89.15;101807.81;5040811;28;20040;-60
2023/09/14 08:42:55;;;;;;;26.85;15.52;;;;;;;17.54;88.70;101812.13;5038603;28;20029;-61
2023/09/14 08:45:28;;;;;;;24.60;14.98;;;;;;;17.30;89.00;101818.69;5041789;28;20021;-62
2023/09/14 08:47:55;;;;;;;24.60;15.93;;;;;;;17.28;90.36;101818.69;5039289;28;20032;-62
2023/09/14 08:50:25;;;;;;;25.85;15.80;;;;;;;17.08;90.42;101820.84;5038001;28;20029;-60
2023/09/14 08:52:51;;;;;;;26.52;14.68;;;;;;;17.29;89.48;101812.59;5037374;28;20500;-60
2023/09/14 08:55:20;;;;;;;25.10;15.30;;;;;;;17.23;89.62;101806.63;5037521;28;20040;-60
2023/09/14 08:57:46;;;;;;;27.05;16.73;;;;;;;17.42;89.48;101801.00;5038213;28;20434;-60
2023/09/14 09:00:15;;;;;;;22.45;15.18;;;;;;;17.60;90.27;101809.38;5041616;28;20513;-60
2023/09/14 09:02:52;;;;;;;26.65;14.98;;;;;;;17.39;90.10;101806.28;5035915;28;20045;-61
2023/09/14 09:05:19;;;;;;;25.42;16.15;;;;;;;17.14;90.82;101805.03;5038066;28;20088;-60
2023/09/14 09:07:48;;;;;;;26.27;16.65;;;;;;;17.27;91.05;101810.91;5023296;28;20033;-60
2023/09/14 09:10:34;;;;;;;27.35;16.92;;;;;;;17.37;90.76;101807.22;5037315;28;20026;-60
2023/09/14 09:13:02;;;;;;;27.30;18.08;;;;;;;17.33;88.24;101793.34;5031364;28;20048;-60
2023/09/14 09:15:28;;;;;;;26.00;16.60;;;;;;;17.61;87.73;101801.47;5035633;28;20488;-60
2023/09/14 09:17:55;;;;;;;24.55;16.27;;;;;;;17.62;88.24;101798.00;5033450;28;20026;-60
2023/09/14 09:20:22;;;;;;;28.17;17.30;;;;;;;17.64;89.43;101804.03;5040159;28;20033;-60
2023/09/14 09:22:52;;;;;;;24.27;15.25;;;;;;;17.65;88.70;101805.78;5037029;28;20669;-60
2023/09/14 09:25:19;;;;;;;21.65;15.30;;;;;;;17.63;88.68;101804.09;5035388;28;20544;-60
2023/09/14 09:27:44;;;;;;;25.52;14.93;;;;;;;18.00;88.15;101794.56;5037239;28;20022;-60
2023/09/14 09:30:11;;;;;;;22.73;14.43;;;;;;;18.25;86.01;101792.25;5040303;28;20029;-60
2023/09/14 09:32:38;;;;;;;22.50;14.55;;;;;;;18.16;85.85;101787.22;5034928;28;20037;-60
2023/09/14 09:35:18;;;;;;;22.88;14.38;;;;;;;18.05;85.23;101786.63;5039711;28;20532;-60
2023/09/14 09:37:43;;;;;;;21.52;12.65;;;;;;;18.11;86.16;101789.94;5036511;28;20042;-60
2023/09/14 09:40:20;;;;;;;17.50;11.75;;;;;;;18.26;85.44;101780.88;5037813;28;20036;-60
2023/09/14 09:42:46;;;;;;;20.17;11.07;;;;;;;18.33;84.93;101788.56;5038960;28;20055;-60
2023/09/14 09:45:13;;;;;;;17.13;11.50;;;;;;;18.43;84.42;101779.56;5035484;28;20053;-60
2023/09/14 09:47:39;;;;;;;15.65;10.50;;;;;;;18.64;85.53;101793.88;5032192;28;20399;-60
2023/09/14 09:50:06;;;;;;;14.65;10.88;;;;;;;18.56;82.91;101771.41;5034766;28;20056;-59
2023/09/14 09:52:33;;;;;;;17.88;12.00;;;;;;;18.43;82.51;101766.47;5039482;28;20702;-59
2023/09/14 09:54:58;;;;;;;14.60;10.93;;;;;;;18.42;83.27;101761.28;5036284;28;20044;-59
2023/09/14 09:57:29;;;;;;;13.48;9.85;;;;;;;18.45;83.28;101763.84;5036535;28;20029;-59
2023/09/14 09:59:55;;;;;;;13.07;9.18;;;;;;;18.79;82.55;101759.44;5036101;28;20039;-59
2023/09/14 10:02:31;;;;;;;14.30;8.02;;;;;;;18.98;80.14;101742.38;5036995;28;20037;-66
2023/09/14 10:04:59;;;;;;;11.45;7.13;;;;;;;19.06;79.12;101736.91;5038551;28;20460;-60
2023/09/14 10:07:25;;;;;;;11.00;7.30;;;;;;;18.96;77.89;101725.84;5035454;28;20121;-60
2023/09/14 10:09:53;;;;;;;11.10;6.00;;;;;;;19.07;78.20;101731.63;5039266;28;20531;-60
2023/09/14 10:12:24;;;;;;;8.38;6.22;;;;;;;19.18;77.39;101726.06;5036943;28;20028;-60
2023/09/14 10:14:52;;;;;;;8.30;4.97;;;;;;;19.39;75.57;101707.09;5035695;28;20037;-61
2023/09/14 10:17:24;;;;;;;7.82;4.78;;;;;;;19.46;73.62;101695.53;5037483;28;20045;-61
2023/09/14 10:19:51;;;;;;;7.82;4.75;;;;;;;19.69;73.20;101697.44;5035885;28;20112;-62
2023/09/14 10:22:19;;;;;;;12.18;5.32;;;;;;;19.73;73.51;101698.22;5037723;28;20033;-61
2023/09/14 10:24:45;;;;;;;8.80;4.90;;;;;;;19.80;73.60;101700.63;5034871;28;20064;-62
2023/09/14 10:27:13;;;;;;;6.70;4.47;;;;;;;19.96;73.50;101701.88;5035977;28;20538;-61
2023/09/14 10:29:42;;;;;;;7.80;4.38;;;;;;;20.08;73.00;101696.22;5034888;28;20038;-61
2023/09/14 10:32:10;;;;;;;5.00;3.10;;;;;;;20.23;71.57;101683.50;5036882;28;20033;-62
2023/09/14 10:34:38;;;;;;;7.78;3.95;;;;;;;19.93;69.93;101659.97;5032925;28;20044;-62
2023/09/14 10:37:04;;;;;;;12.15;4.10;;;;;;;19.88;70.18;101663.66;5011640;28;20087;-61
2023/09/14 10:39:30;;;;;;;7.65;4.68;;;;;;;19.81;71.80;101704.97;5039101;28;20013;-62
2023/09/14 10:41:56;;;;;;;5.97;4.15;;;;;;;19.54;71.33;101688.28;5028553;28;20037;-61
2023/09/14 10:44:22;;;;;;;6.00;4.00;;;;;;;19.68;72.92;101715.88;5035308;28;20389;-62
2023/09/14 10:46:52;;;;;;;6.45;3.25;;;;;;;19.84;70.13;101672.53;5035415;28;20088;-62
2023/09/14 10:49:22;;;;;;;3.95;2.67;;;;;;;20.01;70.35;101675.47;5014040;28;20033;-62
2023/09/14 10:51:48;;;;;;;7.35;3.83;;;;;;;20.05;69.94;101674.47;5038452;28;20041;-62
2023/09/14 10:54:14;;;;;;;5.57;3.20;;;;;;;20.22;69.88;101661.63;5024957;28;20396;-62
2023/09/14 10:56:39;;;;;;;4.50;2.55;;;;;;;20.27;66.30;101598.47;5035518;28;20036;-62
2023/09/14 10:59:08;;;;;;;3.72;2.47;;;;;;;20.03;66.89;101619.41;5039610;28;20040;-62
2023/09/14 11:01:45;;;;;;;4.70;2.95;;;;;;;20.13;68.67;101654.91;5046070;28;20025;-62
2023/09/14 11:04:13;;;;;;;5.38;2.80;;;;;;;20.06;66.14;101608.81;5041136;28;20045;-62
2023/09/14 11:06:48;;;;;;;3.72;2.65;;;;;;;20.00;64.88;101590.66;5038706;28;20021;-61
2023/09/14 11:09:15;;;;;;;4.43;2.90;;;;;;;19.67;64.79;101585.63;5046701;28;20061;-61